createdAt,value
2019-05-23T00:02:29.886Z,97468.16
2019-05-23T00:05:25.957Z,97463.93
2019-05-23T00:08:14.159Z,97452.95
2019-05-23T00:10:54.205Z,97452.95
2019-05-23T00:13:45.612Z,97473.23
2019-05-23T00:16:18.264Z,97462.72
2019-05-23T00:18:48.681Z,97467.80
2019-05-23T00:21:20.021Z,97470.36
2019-05-23T00:23:50.236Z,97469.16
2019-05-23T00:26:19.884Z,97465.94
2019-05-23T00:28:50.283Z,97463.27
2019-05-23T00:34:16.598Z,97464.06
2019-05-23T00:36:46.236Z,97465.78
2019-05-23T00:39:16.861Z,97461.91
2019-05-23T00:41:47.996Z,97461.39
2019-05-23T00:44:18.014Z,97459.38
2019-05-23T00:46:48.742Z,97456.48
2019-05-23T00:49:19.908Z,97450.94
2019-05-23T00:51:49.471Z,97454.48
2019-05-23T00:54:19.565Z,97458.38
2019-05-23T00:56:49.577Z,97455.98
2019-05-23T00:59:27.162Z,97461.39
2019-05-23T01:01:50.796Z,97451.62
2019-05-23T01:04:31.401Z,97452.81
2019-05-23T01:07:02.236Z,97450.41
2019-05-23T01:09:32.585Z,97452.95
2019-05-23T01:12:02.248Z,97455.98
2019-05-23T01:14:31.771Z,97453.77
2019-05-23T01:17:01.899Z,97463.77
2019-05-23T01:19:32.146Z,97457.70
2019-05-23T01:22:03.910Z,97459.99
2019-05-23T01:24:40.900Z,97463.42
2019-05-23T01:27:10.925Z,97463.42
2019-05-23T01:29:49.482Z,97461.09
2019-05-23T01:32:20.161Z,97462.58
2019-05-23T01:34:49.794Z,97464.41
2019-05-23T01:37:19.803Z,97462.77
2019-05-23T01:39:49.705Z,97456.65
2019-05-23T01:42:19.925Z,97462.05
2019-05-23T01:44:49.611Z,97466.80
2019-05-23T01:47:20.139Z,97465.95
2019-05-23T01:49:49.790Z,97464.91
2019-05-23T01:52:19.259Z,97468.94
2019-05-23T01:54:48.872Z,97477.56
2019-05-23T01:57:18.681Z,97465.02
2019-05-23T01:59:48.303Z,97467.98
2019-05-23T02:02:19.200Z,97480.67
2019-05-23T02:04:49.037Z,97480.67
2019-05-23T02:07:19.780Z,97473.18
2019-05-23T02:09:49.208Z,97473.18
2019-05-23T02:12:19.252Z,97468.94
2019-05-23T02:14:49.855Z,97468.84
2019-05-23T02:17:19.300Z,97470.52
2019-05-23T02:19:49.329Z,97474.20
2019-05-23T02:22:19.089Z,97462.86
2019-05-23T02:24:48.804Z,97470.18
2019-05-23T02:27:20.307Z,97475.20
2019-05-23T02:29:49.681Z,97475.41
2019-05-23T02:32:19.084Z,97474.72
2019-05-23T02:34:49.124Z,97475.05
2019-05-23T02:37:32.606Z,97466.92
2019-05-23T02:40:10.354Z,97468.05
2019-05-23T02:42:47.259Z,97475.17
2019-05-23T02:45:27.351Z,97481.43
2019-05-23T02:47:58.269Z,97486.05
2019-05-23T02:50:31.185Z,97479.13
2019-05-23T02:53:02.987Z,97479.30
2019-05-23T02:55:38.834Z,97479.81
2019-05-23T02:58:20.878Z,97484.03
2019-05-23T03:00:55.785Z,97486.73
2019-05-23T03:03:28.241Z,97487.75
2019-05-23T03:05:59.499Z,97486.05
2019-05-23T03:08:31.909Z,97477.56
2019-05-23T03:11:17.634Z,97479.98
2019-05-23T03:13:48.123Z,97477.60
2019-05-23T03:16:24.031Z,97484.02
2019-05-23T03:19:13.994Z,97483.20
2019-05-23T03:21:43.820Z,97482.67
2019-05-23T03:24:13.759Z,97481.67
2019-05-23T03:27:00.174Z,97486.07
2019-05-23T03:29:31.458Z,97486.07
2019-05-23T03:32:05.583Z,97487.03
2019-05-23T03:34:39.144Z,97485.87
2019-05-23T03:37:09.874Z,97485.72
2019-05-23T03:39:39.882Z,97481.48
2019-05-23T03:42:10.681Z,97481.30
2019-05-23T03:44:40.527Z,97481.30
2019-05-23T03:47:11.538Z,97486.55
2019-05-23T03:49:42.256Z,97485.53
2019-05-23T03:52:15.022Z,97486.06
2019-05-23T03:54:46.860Z,97482.52
2019-05-23T03:57:16.913Z,97481.28
2019-05-23T03:59:46.725Z,97476.42
2019-05-23T04:02:17.928Z,97477.45
2019-05-23T04:04:48.013Z,97485.72
2019-05-23T04:07:18.152Z,97486.39
2019-05-23T04:09:47.704Z,97490.23
2019-05-23T04:12:17.533Z,97486.91
2019-05-23T04:14:47.399Z,97482.33
2019-05-23T04:17:16.857Z,97482.84
2019-05-23T04:19:49.244Z,97489.78
2019-05-23T04:22:19.221Z,97481.59
2019-05-23T04:24:48.970Z,97489.78
2019-05-23T04:27:19.635Z,97490.09
2019-05-23T04:29:49.034Z,97492.13
2019-05-23T04:32:18.831Z,97494.48
2019-05-23T04:34:49.044Z,97500.08
2019-05-23T04:37:18.602Z,97497.20
2019-05-23T04:39:48.068Z,97505.99
2019-05-23T04:42:17.441Z,97497.55
2019-05-23T04:44:46.841Z,97506.78
2019-05-23T04:47:16.674Z,97506.98
2019-05-23T04:49:46.510Z,97509.36
2019-05-23T04:52:16.517Z,97511.70
2019-05-23T04:54:46.066Z,97509.66
2019-05-23T04:57:18.236Z,97512.70
2019-05-23T04:59:48.773Z,97513.58
2019-05-23T05:02:26.172Z,97518.13
2019-05-23T05:04:52.522Z,97525.41
2019-05-23T05:07:22.375Z,97530.91
2019-05-23T05:09:52.509Z,97524.70
2019-05-23T05:12:22.400Z,97531.18
2019-05-23T05:14:51.914Z,97532.50
2019-05-23T05:17:21.655Z,97530.05
2019-05-23T05:19:51.034Z,97525.63
2019-05-23T05:22:20.412Z,97529.69
2019-05-23T05:24:49.816Z,97529.22
2019-05-23T05:27:19.626Z,97523.83
2019-05-23T05:29:49.113Z,97525.55
2019-05-23T05:32:18.735Z,97522.78
2019-05-23T05:34:49.042Z,97528.95
2019-05-23T05:37:18.478Z,97532.77
2019-05-23T05:39:48.565Z,97529.18
2019-05-23T05:42:18.133Z,97528.02
2019-05-23T05:44:47.504Z,97520.29
2019-05-23T05:47:17.111Z,97522.91
2019-05-23T05:49:46.728Z,97528.20
2019-05-23T05:52:16.813Z,97520.61
2019-05-23T05:54:46.188Z,97528.59
2019-05-23T05:57:16.236Z,97532.80
2019-05-23T05:59:45.706Z,97528.52
2019-05-23T06:02:16.730Z,97527.39
2019-05-23T06:04:46.427Z,97535.59
2019-05-23T06:07:35.791Z,97520.03
2019-05-23T06:10:07.933Z,97530.14
2019-05-23T06:12:38.425Z,97530.16
2019-05-23T06:15:08.421Z,97541.31
2019-05-23T06:17:38.506Z,97538.00
2019-05-23T06:20:09.799Z,97539.95
2019-05-23T06:22:41.000Z,97551.09
2019-05-23T06:25:12.401Z,97551.83
2019-05-23T06:27:42.421Z,97555.67
2019-05-23T06:30:13.640Z,97558.69
2019-05-23T06:32:43.180Z,97556.55
2019-05-23T06:35:14.474Z,97568.79
2019-05-23T06:37:43.945Z,97558.38
2019-05-23T06:40:14.925Z,97560.31
2019-05-23T06:42:45.515Z,97561.04
2019-05-23T06:45:16.674Z,97562.86
2019-05-23T06:47:46.198Z,97568.19
2019-05-23T06:50:19.228Z,97566.53
2019-05-23T06:52:48.714Z,97569.78
2019-05-23T06:55:18.287Z,97567.19
2019-05-23T06:57:47.634Z,97566.55
2019-05-23T07:00:19.236Z,97568.25
2019-05-23T07:02:49.252Z,97562.23
2019-05-23T07:05:22.277Z,97565.80
2019-05-23T07:07:51.819Z,97567.67
2019-05-23T07:10:23.036Z,97567.54
2019-05-23T07:12:52.596Z,97569.34
2019-05-23T07:15:22.333Z,97570.30
2019-05-23T07:17:52.249Z,97575.03
2019-05-23T07:20:22.346Z,97575.44
2019-05-23T07:22:51.794Z,97566.34
2019-05-23T07:25:22.375Z,97565.11
2019-05-23T07:27:52.205Z,97570.88
2019-05-23T07:30:26.875Z,97567.89
2019-05-23T07:32:57.661Z,97568.16
2019-05-23T07:35:27.378Z,97570.88
2019-05-23T07:37:57.327Z,97576.62
2019-05-23T07:40:27.937Z,97567.99
2019-05-23T07:42:57.486Z,97567.13
2019-05-23T07:45:31.290Z,97569.45
2019-05-23T07:48:00.766Z,97574.95
2019-05-23T07:50:30.417Z,97571.91
2019-05-23T07:53:00.257Z,97570.99
2019-05-23T07:55:31.278Z,97564.84
2019-05-23T07:58:00.827Z,97565.31
2019-05-23T08:00:32.022Z,97567.18
2019-05-23T08:03:04.170Z,97565.14
2019-05-23T08:05:34.355Z,97567.82
2019-05-23T08:08:04.807Z,97575.42
2019-05-23T08:10:34.737Z,97571.98
2019-05-23T08:13:04.307Z,97568.98
2019-05-23T08:15:33.686Z,97577.63
2019-05-23T08:18:03.802Z,97566.81
2019-05-23T08:20:33.525Z,97560.16
2019-05-23T08:23:02.964Z,97565.77
2019-05-23T08:25:32.699Z,97556.83
2019-05-23T08:28:02.539Z,97551.19
2019-05-23T08:30:32.343Z,97552.16
2019-05-23T08:33:03.099Z,97549.66
2019-05-23T08:35:32.600Z,97549.16
2019-05-23T08:38:02.427Z,97556.38
2019-05-23T08:40:33.257Z,97557.17
2019-05-23T08:43:03.376Z,97560.44
2019-05-23T08:45:33.403Z,97547.07
2019-05-23T08:48:03.222Z,97550.89
2019-05-23T08:50:34.451Z,97552.81
2019-05-23T08:53:04.083Z,97542.75
2019-05-23T08:55:34.411Z,97546.64
2019-05-23T08:58:05.771Z,97548.45
2019-05-23T09:00:39.844Z,97549.82
2019-05-23T09:03:10.324Z,97547.33
2019-05-23T09:05:40.341Z,97538.55
2019-05-23T09:08:11.556Z,97530.78
2019-05-23T09:10:41.941Z,97531.50
2019-05-23T09:13:12.742Z,97545.81
2019-05-23T09:15:42.275Z,97543.56
2019-05-23T09:18:12.471Z,97552.13
2019-05-23T09:20:42.286Z,97551.77
2019-05-23T09:23:12.025Z,97549.20
2019-05-23T09:25:41.415Z,97543.40
2019-05-23T09:28:12.505Z,97542.48
2019-05-23T09:30:41.946Z,97547.02
2019-05-23T09:33:12.448Z,97549.76
2019-05-23T09:35:42.315Z,97552.19
2019-05-23T09:38:11.801Z,97540.42
2019-05-23T09:40:41.170Z,97552.40
2019-05-23T09:43:11.686Z,97552.69
2019-05-23T09:45:41.220Z,97550.08
2019-05-23T09:48:10.666Z,97555.97
2019-05-23T09:50:40.049Z,97545.70
2019-05-23T09:53:09.672Z,97548.95
2019-05-23T09:55:39.282Z,97540.92
2019-05-23T09:58:08.830Z,97534.33
2019-05-23T10:00:39.316Z,97532.48
2019-05-23T10:03:09.668Z,97530.45
2019-05-23T10:05:43.190Z,97536.66
2019-05-23T10:08:10.997Z,97533.95
2019-05-23T10:10:40.602Z,97538.46
2019-05-23T10:13:10.464Z,97533.92
2019-05-23T10:15:50.967Z,97522.91
2019-05-23T10:18:22.314Z,97527.31
2019-05-23T10:20:51.779Z,97529.18
2019-05-23T10:23:21.572Z,97526.26
2019-05-23T10:25:51.125Z,97524.72
2019-05-23T10:28:20.520Z,97524.34
2019-05-23T10:30:49.933Z,97518.69
2019-05-23T10:33:19.425Z,97512.48
2019-05-23T10:35:59.938Z,97519.61
2019-05-23T10:38:20.177Z,97509.63
2019-05-23T10:40:50.976Z,97498.08
2019-05-23T10:43:20.814Z,97500.81
2019-05-23T10:45:50.528Z,97505.78
2019-05-23T10:48:21.226Z,97496.58
2019-05-23T10:50:50.916Z,97498.80
2019-05-23T10:53:20.311Z,97489.45
2019-05-23T10:55:49.694Z,97497.19
2019-05-23T10:58:19.580Z,97500.00
2019-05-23T11:00:50.777Z,97501.59
2019-05-23T11:03:21.265Z,97498.70
2019-05-23T11:05:50.788Z,97493.20
2019-05-23T11:08:20.947Z,97490.19
2019-05-23T11:10:50.372Z,97478.19
2019-05-23T11:13:19.931Z,97480.94
2019-05-23T11:15:49.501Z,97491.89
2019-05-23T11:18:19.120Z,97482.91
2019-05-23T11:20:49.127Z,97482.16
2019-05-23T11:23:29.411Z,97487.05
2019-05-23T11:26:01.426Z,97482.22
2019-05-23T11:28:31.608Z,97475.70
2019-05-23T11:31:00.985Z,97478.22
2019-05-23T11:33:30.432Z,97478.80
2019-05-23T11:35:59.813Z,97476.91
2019-05-23T11:38:30.082Z,97484.77
2019-05-23T11:40:59.518Z,97480.38
2019-05-23T11:43:28.985Z,97475.67
2019-05-23T11:46:02.900Z,97473.06
2019-05-23T11:48:33.156Z,97474.09
2019-05-23T11:51:02.601Z,97477.05
2019-05-23T11:53:32.388Z,97469.29
2019-05-23T11:56:02.143Z,97466.70
2019-05-23T11:58:32.889Z,97468.55
2019-05-23T12:01:20.829Z,97460.88
2019-05-23T12:03:48.239Z,97458.63
2019-05-23T12:06:18.877Z,97449.59
2019-05-23T12:08:48.787Z,97442.06
2019-05-23T12:11:19.599Z,97440.28
2019-05-23T12:13:49.127Z,97438.56
2019-05-23T12:16:19.439Z,97433.41
2019-05-23T12:18:49.582Z,97427.59
2019-05-23T12:21:19.940Z,97428.30
2019-05-23T12:23:49.823Z,97419.91
2019-05-23T12:26:19.951Z,97413.89
2019-05-23T12:28:50.462Z,97413.83
2019-05-23T12:31:20.766Z,97412.65
2019-05-23T12:33:50.660Z,97408.13
2019-05-23T12:36:21.216Z,97406.01
2019-05-23T12:38:51.169Z,97409.27
2019-05-23T12:41:21.473Z,97405.30
2019-05-23T12:43:51.946Z,97406.84
2019-05-23T12:46:21.889Z,97399.53
2019-05-23T12:48:53.982Z,97406.55
2019-05-23T12:51:37.388Z,97400.20
2019-05-23T12:54:07.988Z,97396.97
2019-05-23T12:56:37.371Z,97394.00
2019-05-23T12:59:07.090Z,97402.87
2019-05-23T13:01:38.189Z,97397.62
2019-05-23T13:06:59.320Z,97390.40
2019-05-23T13:09:29.169Z,97389.42
2019-05-23T13:11:58.724Z,97386.74
2019-05-23T13:14:29.240Z,97387.02
2019-05-23T13:17:01.029Z,97382.36
2019-05-23T13:19:30.191Z,97383.19
2019-05-23T13:21:59.582Z,97383.58
2019-05-23T13:24:29.547Z,97383.30
2019-05-23T13:26:59.004Z,97378.58
2019-05-23T13:29:29.139Z,97377.39
2019-05-23T13:31:59.091Z,97373.80
2019-05-23T13:34:28.990Z,97369.33
2019-05-23T13:36:58.818Z,97374.35
2019-05-23T13:39:28.909Z,97371.58
2019-05-23T13:41:59.436Z,97380.94
2019-05-23T13:44:35.074Z,97374.35
2019-05-23T13:47:00.369Z,97375.59
2019-05-23T13:49:30.323Z,97370.62
2019-05-23T13:52:00.029Z,97375.78
2019-05-23T13:54:30.001Z,97366.69
2019-05-23T13:57:00.023Z,97368.47
2019-05-23T13:59:30.295Z,97376.81
2019-05-23T14:02:00.533Z,97385.13
2019-05-23T14:04:30.565Z,97384.75
2019-05-23T14:07:00.416Z,97387.68
2019-05-23T14:09:31.548Z,97381.40
2019-05-23T14:12:19.897Z,97383.94
2019-05-23T14:14:32.312Z,97384.43
2019-05-23T14:17:15.181Z,97385.63
2019-05-23T14:19:44.568Z,97379.46
2019-05-23T14:22:14.193Z,97387.48
2019-05-23T14:24:43.638Z,97370.44
2019-05-23T14:27:27.134Z,97374.66
2019-05-23T14:30:23.411Z,97375.20
2019-05-23T14:32:54.429Z,97375.67
2019-05-23T14:35:28.521Z,97365.33
2019-05-23T14:37:59.527Z,97369.79
2019-05-23T14:40:31.885Z,97376.73
2019-05-23T14:43:04.434Z,97365.09
2019-05-23T14:45:35.649Z,97366.15
2019-05-23T14:48:21.782Z,97368.88
2019-05-23T14:51:05.216Z,97365.69
2019-05-23T14:53:36.896Z,97368.73
2019-05-23T14:56:06.864Z,97366.08
2019-05-23T14:58:36.472Z,97374.00
2019-05-23T15:01:07.361Z,97370.95
2019-05-23T15:03:36.873Z,97372.08
2019-05-23T15:06:06.705Z,97372.08
2019-05-23T15:08:50.611Z,97382.09
2019-05-23T15:11:07.644Z,97374.02
2019-05-23T15:13:37.509Z,97376.36
2019-05-23T15:16:07.154Z,97383.55
2019-05-23T15:18:36.556Z,97384.16
2019-05-23T15:21:06.535Z,97382.77
2019-05-23T15:23:36.295Z,97379.44
2019-05-23T15:26:21.438Z,97379.44
2019-05-23T15:28:37.419Z,97389.55
2019-05-23T15:31:07.580Z,97390.41
2019-05-23T15:33:37.026Z,97383.68
2019-05-23T15:36:07.923Z,97384.51
2019-05-23T15:38:37.381Z,97392.09
2019-05-23T15:41:07.183Z,97388.27
2019-05-23T15:43:37.475Z,97390.60
2019-05-23T15:46:07.544Z,97390.79
2019-05-23T15:51:06.210Z,97389.83
2019-05-23T15:53:37.237Z,97392.77
2019-05-23T15:56:27.722Z,97401.26
2019-05-23T15:59:09.299Z,97393.44
2019-05-23T16:01:56.846Z,97391.20
2019-05-23T16:04:27.541Z,97387.25
2019-05-23T16:06:57.925Z,97385.34
2019-05-23T16:09:30.765Z,97389.59
2019-05-23T16:11:59.594Z,97387.05
2019-05-23T16:14:29.619Z,97391.86
2019-05-23T16:16:59.677Z,97402.85
2019-05-23T16:19:29.559Z,97397.44
2019-05-23T16:22:00.148Z,97395.13
2019-05-23T16:24:30.522Z,97391.42
2019-05-23T16:27:00.156Z,97388.61
2019-05-23T16:29:30.256Z,97393.63
2019-05-23T16:31:59.714Z,97394.95
2019-05-23T16:34:30.344Z,97387.92
2019-05-23T16:36:59.980Z,97392.84
2019-05-23T16:39:46.040Z,97393.27
2019-05-23T16:42:01.528Z,97395.47
2019-05-23T16:44:30.973Z,97397.86
2019-05-23T16:47:00.453Z,97400.06
2019-05-23T16:49:29.882Z,97390.95
2019-05-23T16:52:00.029Z,97398.31
2019-05-23T16:54:31.488Z,97392.19
2019-05-23T16:57:02.672Z,97398.69
2019-05-23T16:59:42.674Z,97401.65
2019-05-23T17:02:30.049Z,97401.47
2019-05-23T17:05:11.943Z,97408.13
2019-05-23T17:07:53.457Z,97405.24
2019-05-23T17:10:30.354Z,97409.81
2019-05-23T17:13:01.525Z,97411.05
2019-05-23T17:15:38.519Z,97414.12
2019-05-23T17:18:09.618Z,97411.28
2019-05-23T17:20:56.600Z,97413.13
2019-05-23T17:23:36.425Z,97416.94
2019-05-23T17:26:13.105Z,97416.68
2019-05-23T17:28:44.290Z,97410.23
2019-05-23T17:31:15.334Z,97415.26
2019-05-23T17:33:45.530Z,97424.06
2019-05-23T17:36:14.976Z,97420.77
2019-05-23T17:38:44.468Z,97418.50
2019-05-23T17:41:14.744Z,97425.06
2019-05-23T17:43:44.142Z,97424.50
2019-05-23T17:46:13.578Z,97425.83
2019-05-23T17:48:42.965Z,97430.32
2019-05-23T17:51:12.649Z,97430.78
2019-05-23T17:53:42.294Z,97436.95
2019-05-23T17:56:11.687Z,97441.70
2019-05-23T17:58:41.798Z,97446.84
2019-05-23T18:01:11.537Z,97448.30
2019-05-23T18:03:41.075Z,97446.05
2019-05-23T18:06:10.528Z,97447.99
2019-05-23T18:08:39.915Z,97448.09
2019-05-23T18:11:09.301Z,97447.48
2019-05-23T18:13:39.373Z,97451.02
2019-05-23T18:16:09.132Z,97450.82
2019-05-23T18:18:38.672Z,97455.58
2019-05-23T18:21:08.328Z,97453.14
2019-05-23T18:23:38.353Z,97458.08
2019-05-23T18:26:07.925Z,97463.01
2019-05-23T18:28:37.373Z,97459.56
2019-05-23T18:31:11.094Z,97467.39
2019-05-23T18:33:41.623Z,97469.34
2019-05-23T18:36:11.389Z,97471.91
2019-05-23T18:38:41.312Z,97475.31
2019-05-23T18:41:11.615Z,97477.89
2019-05-23T18:43:42.422Z,97483.65
2019-05-23T18:46:19.819Z,97480.23
2019-05-23T18:48:49.381Z,97483.09
2019-05-23T18:51:18.772Z,97486.66
2019-05-23T18:53:48.560Z,97483.52
2019-05-23T18:56:18.054Z,97491.02
2019-05-23T18:58:47.633Z,97490.04
2019-05-23T19:01:18.675Z,97499.33
2019-05-23T19:03:48.219Z,97500.09
2019-05-23T19:06:18.038Z,97506.75
2019-05-23T19:08:47.843Z,97504.23
2019-05-23T19:11:21.120Z,97512.84
2019-05-23T19:13:48.507Z,97520.66
2019-05-23T19:16:17.930Z,97519.30
2019-05-23T19:18:48.013Z,97519.96
2019-05-23T19:21:18.210Z,97521.44
2019-05-23T19:23:47.663Z,97522.00
2019-05-23T19:26:18.511Z,97529.27
2019-05-23T19:28:48.138Z,97532.16
2019-05-23T19:31:17.610Z,97533.27
2019-05-23T19:33:48.070Z,97530.72
2019-05-23T19:36:18.154Z,97542.77
2019-05-23T19:38:47.698Z,97545.69
2019-05-23T19:41:17.312Z,97539.86
2019-05-23T19:43:48.215Z,97546.98
2019-05-23T19:46:18.470Z,97544.70
2019-05-23T19:48:48.499Z,97544.46
2019-05-23T19:51:18.717Z,97546.92
2019-05-23T19:53:48.455Z,97550.86
2019-05-23T19:56:18.983Z,97553.53
2019-05-23T19:58:48.443Z,97549.39
2019-05-23T20:01:18.622Z,97553.98
2019-05-23T20:03:48.065Z,97552.95
2019-05-23T20:06:17.750Z,97552.84
2019-05-23T20:08:48.077Z,97556.63
2019-05-23T20:11:17.656Z,97558.38
2019-05-23T20:13:47.355Z,97567.75
2019-05-23T20:16:17.236Z,97560.19
2019-05-23T20:18:46.619Z,97563.20
2019-05-23T20:21:17.048Z,97567.72
2019-05-23T20:23:46.490Z,97565.92
2019-05-23T20:26:16.405Z,97570.30
2019-05-23T20:28:45.876Z,97563.05
2019-05-23T20:31:15.665Z,97561.27
2019-05-23T20:33:45.611Z,97559.85
2019-05-23T20:36:17.822Z,97562.75
2019-05-23T20:38:47.353Z,97561.13
2019-05-23T20:41:18.091Z,97573.36
2019-05-23T20:43:47.879Z,97568.59
2019-05-23T20:46:17.643Z,97562.23
2019-05-23T20:48:47.161Z,97564.08
2019-05-23T20:51:16.818Z,97574.80
2019-05-23T20:53:46.659Z,97569.37
2019-05-23T20:56:16.203Z,97567.33
2019-05-23T20:58:45.678Z,97559.75
2019-05-23T21:01:16.828Z,97563.52
2019-05-23T21:03:46.728Z,97562.83
2019-05-23T21:06:16.315Z,97561.53
2019-05-23T21:08:45.778Z,97561.88
2019-05-23T21:11:15.187Z,97560.02
2019-05-23T21:13:44.601Z,97564.70
2019-05-23T21:16:13.986Z,97561.88
2019-05-23T21:18:43.542Z,97561.88
2019-05-23T21:21:13.370Z,97557.88
2019-05-23T21:23:42.772Z,97558.45
2019-05-23T21:26:12.216Z,97556.58
2019-05-23T21:28:42.258Z,97559.79
2019-05-23T21:31:14.086Z,97563.41
2019-05-23T21:33:43.688Z,97564.14
2019-05-23T21:36:13.132Z,97572.63
2019-05-23T21:38:43.311Z,97569.39
2019-05-23T21:41:13.837Z,97571.02
2019-05-23T21:43:44.167Z,97566.01
2019-05-23T21:46:14.081Z,97557.97
2019-05-23T21:48:44.186Z,97576.87
2019-05-23T21:51:14.449Z,97573.00
2019-05-23T21:53:44.670Z,97576.22
2019-05-23T21:56:14.915Z,97576.13
2019-05-23T21:58:45.208Z,97578.75
2019-05-23T22:01:19.516Z,97574.46
2019-05-23T22:03:50.859Z,97576.33
2019-05-23T22:06:23.414Z,97577.87
2019-05-23T22:08:53.170Z,97575.33
2019-05-23T22:11:22.728Z,97576.77
2019-05-23T22:13:52.279Z,97576.03
2019-05-23T22:16:22.076Z,97571.84
2019-05-23T22:18:51.530Z,97571.31
2019-05-23T22:21:21.089Z,97570.59
2019-05-23T22:23:50.712Z,97566.77
2019-05-23T22:26:20.453Z,97565.00
2019-05-23T22:28:49.845Z,97566.86
2019-05-23T22:31:20.065Z,97568.62
2019-05-23T22:33:53.749Z,97569.34
2019-05-23T22:36:23.485Z,97563.72
2019-05-23T22:38:53.115Z,97560.88
2019-05-23T22:41:22.573Z,97571.95
2019-05-23T22:43:52.020Z,97564.34
2019-05-23T22:46:22.689Z,97565.47
2019-05-23T22:48:52.208Z,97562.97
2019-05-23T22:51:21.665Z,97560.72
2019-05-23T22:53:51.051Z,97560.78
2019-05-23T22:56:21.212Z,97561.04
2019-05-23T22:58:51.254Z,97552.28
2019-05-23T23:01:23.105Z,97554.00
2019-05-23T23:03:52.757Z,97546.83
2019-05-23T23:06:22.487Z,97539.20
2019-05-23T23:08:52.092Z,97546.19
2019-05-23T23:11:22.188Z,97545.23
2019-05-23T23:13:52.692Z,97542.30
2019-05-23T23:16:22.692Z,97541.66
2019-05-23T23:18:53.020Z,97542.17
2019-05-23T23:21:23.276Z,97536.25
2019-05-23T23:23:53.520Z,97539.54
2019-05-23T23:26:23.727Z,97539.16
2019-05-23T23:28:54.173Z,97543.41
2019-05-23T23:31:24.458Z,97539.34
2019-05-23T23:33:54.607Z,97543.77
2019-05-23T23:36:25.091Z,97544.72
2019-05-23T23:38:55.133Z,97543.73
2019-05-23T23:41:25.201Z,97543.78
2019-05-23T23:43:59.360Z,97553.19
2019-05-23T23:46:45.959Z,97548.11
2019-05-23T23:49:33.124Z,97544.36
2019-05-23T23:52:20.383Z,97538.80
2019-05-23T23:55:08.055Z,97541.71
2019-05-23T23:57:55.397Z,97542.30
